Santa Rita — DIOY2 — position and weather

sailwx.info

Track history (hours):
 
Tides and Currents Weather Stations Pressure Air Temp Water Temp Dewpoint Dewpoint Depression Visibility Wind Speed Wind Dir Waves Ship Positions

Santa Rita

Last reported at 2015-Aug-01 16:10 UTC. Time now 2015-Aug-02 04:13 UTC.
Position N 28°24' E 122°34'.

Length 300 m; draft 9.8 m.

Type: Ship (hazmat cat A). MMSI: 218670000.

Date/timePositionNaut miles runAvg speedWind from/ knotsBaromVisibWave heightAir tempDewpointWater temp
2015-Aug-01 16:10N 28°24' E 122°34'1012.7
2015-Aug-01 15:22N 28°29' E 122°44'3612.2
2015-Aug-01 12:25N 29°04' E 122°55'1212.3
2015-Aug-01 11:29N 29°15' E 122°58'1612.5
2015-Aug-01 10:14N 29°30' E 123°04'1312.1
2015-Aug-01 09:10N 29°43' E 123°07'813.0
2015-Aug-01 08:33N 29°51' E 123°09'6212.5
2015-Aug-01 03:33N 30°33' E 122°16'1110.6
2015-Aug-01 02:33N 30°37' E 122°04'1 0.8
2015-Aug-01 01:22N 30°37' E 122°04'0 0.0
2015-Aug-01 00:31N 30°37' E 122°04'0 0.0
2015-Jul-31 23:31N 30°37' E 122°04'0 0.0
2015-Jul-31 22:31N 30°37' E 122°04'0 0.0
2015-Jul-31 21:28N 30°37' E 122°04'0 0.0
2015-Jul-31 19:31N 30°37' E 122°04'0 0.1
2015-Jul-31 18:31N 30°37' E 122°04'0 0.0
2015-Jul-31 15:17N 30°37' E 122°04'0 0.0
2015-Jul-31 14:32N 30°37' E 122°04'6 6.6
2015-Jul-31 13:33N 30°34' E 122°10'1211.9
2015-Jul-31 12:33N 30°32' E 122°24'1 1.4
2015-Jul-31 11:33N 30°34' E 122°23'1110.8
2015-Jul-31 10:33N 30°29' E 122°34'0 0.2
2015-Jul-31 09:25N 30°28' E 122°34'0 0.1
2015-Jul-31 08:22N 30°28' E 122°34'0 0.0
2015-Jul-31 07:25N 30°28' E 122°34'0 0.0
2015-Jul-31 06:07N 30°28' E 122°34'0 0.0
2015-Jul-31 05:31N 30°28' E 122°34'0 0.1
2015-Jul-31 04:31N 30°29' E 122°34'1 0.6
2015-Jul-31 03:27N 30°29' E 122°33'9 9.5
2015-Jul-31 02:30N 30°33' E 122°43'1212.4
2015-Jul-31 01:33N 30°36' E 122°56'2412.1
2015-Jul-30 23:33N 30°42' E 123°23'1111.4
2015-Jul-30 22:33N 30°47' E 123°35'1111.1
2015-Jul-30 21:33N 30°53' E 123°46'1110.7
2015-Jul-30 20:33N 30°60' E 123°56'1010.1
2015-Jul-30 19:32N 31°05' E 124°06'3010.1
2015-Jul-30 16:33N 31°22' E 124°35'1210.2
2015-Jul-30 15:26N 31°29' E 124°46'2210.3
2015-Jul-30 13:16N 31°42' E 125°07'710.5
2015-Jul-30 12:33N 31°47' E 125°14'1111.0
2015-Jul-30 11:33N 31°53' E 125°24'1211.4
2015-Jul-30 10:32N 32°00' E 125°36'  
2015-Jul-27 00:00N 40°42' E 139°06'30917.2 210 / 101008.610.8 1.024.520.921.0
2015-Jul-26 06:00N 42°24' E 145°36'   110 / 141011.2 1.1 1.519.317.619.0
Track history (hours):
 
Tides and Currents Weather Stations Pressure Air Temp Water Temp Dewpoint Dewpoint Depression Visibility Wind Speed Wind Dir Waves Ship Positions

Santa Rita

Last reported at 2015-Aug-01 16:10 UTC. Time now 2015-Aug-02 04:13 UTC.
Position N 28°24' E 122°34'.

Length 300 m; draft 9.8 m.

Type: Ship (hazmat cat A). MMSI: 218670000.

Date/timePositionNaut miles runAvg speedWind from/ knotsBaromVisibWave heightAir tempDewpointWater temp
2015-Aug-01 16:10N 28°24' E 122°34'1012.7
2015-Aug-01 15:22N 28°29' E 122°44'3612.2
2015-Aug-01 12:25N 29°04' E 122°55'1212.3
2015-Aug-01 11:29N 29°15' E 122°58'1612.5
2015-Aug-01 10:14N 29°30' E 123°04'1312.1
2015-Aug-01 09:10N 29°43' E 123°07'813.0
2015-Aug-01 08:33N 29°51' E 123°09'6212.5
2015-Aug-01 03:33N 30°33' E 122°16'1110.6
2015-Aug-01 02:33N 30°37' E 122°04'1 0.8
2015-Aug-01 01:22N 30°37' E 122°04'0 0.0
2015-Aug-01 00:31N 30°37' E 122°04'0 0.0
2015-Jul-31 23:31N 30°37' E 122°04'0 0.0
2015-Jul-31 22:31N 30°37' E 122°04'0 0.0
2015-Jul-31 21:28N 30°37' E 122°04'0 0.0
2015-Jul-31 19:31N 30°37' E 122°04'0 0.1
2015-Jul-31 18:31N 30°37' E 122°04'0 0.0
2015-Jul-31 15:17N 30°37' E 122°04'0 0.0
2015-Jul-31 14:32N 30°37' E 122°04'6 6.6
2015-Jul-31 13:33N 30°34' E 122°10'1211.9
2015-Jul-31 12:33N 30°32' E 122°24'1 1.4
2015-Jul-31 11:33N 30°34' E 122°23'1110.8
2015-Jul-31 10:33N 30°29' E 122°34'0 0.2
2015-Jul-31 09:25N 30°28' E 122°34'0 0.1
2015-Jul-31 08:22N 30°28' E 122°34'0 0.0
2015-Jul-31 07:25N 30°28' E 122°34'0 0.0
2015-Jul-31 06:07N 30°28' E 122°34'0 0.0
2015-Jul-31 05:31N 30°28' E 122°34'0 0.1
2015-Jul-31 04:31N 30°29' E 122°34'1 0.6
2015-Jul-31 03:27N 30°29' E 122°33'9 9.5
2015-Jul-31 02:30N 30°33' E 122°43'1212.4
2015-Jul-31 01:33N 30°36' E 122°56'2412.1
2015-Jul-30 23:33N 30°42' E 123°23'1111.4
2015-Jul-30 22:33N 30°47' E 123°35'1111.1
2015-Jul-30 21:33N 30°53' E 123°46'1110.7
2015-Jul-30 20:33N 30°60' E 123°56'1010.1
2015-Jul-30 19:32N 31°05' E 124°06'3010.1
2015-Jul-30 16:33N 31°22' E 124°35'1210.2
2015-Jul-30 15:26N 31°29' E 124°46'2210.3
2015-Jul-30 13:16N 31°42' E 125°07'710.5
2015-Jul-30 12:33N 31°47' E 125°14'1111.0
2015-Jul-30 11:33N 31°53' E 125°24'1211.4
2015-Jul-30 10:32N 32°00' E 125°36'  
2015-Jul-27 00:00N 40°42' E 139°06'30917.2 210 / 101008.610.8 1.024.520.921.0
2015-Jul-26 06:00N 42°24' E 145°36'   110 / 141011.2 1.1 1.519.317.619.0

Dump ship's entire track history